Terminal Aerodrome Forecast
Issued by NWS

Home | Current Version | Previous Version | Text Only | Print | Product List | Glossary Off
Versions: 1 2 3 4 5 6 7 8 9 10 11 12 13 14 15 16 17 18 19

000
FTUS42 KMHX 240542
TAFOAJ
TAF
KOAJ 240542Z 2406/2506 03008KT P6SM OVC120
     FM241200 02010KT P6SM OVC035
     FM241500 02008KT 3SM -SNPL OVC010
     FM241800 02006KT 2SM -SN BR OVC003
     FM242100 01006KT 2SM -FZRA BR OVC003
     FM250500 35005KT 4SM BR OVC005
      AMD LTD TO CLD VIS AND WIND=

USA.gov is the U.S. government's official web portal to all federal, state and local government web resources and services.